NHT weather

RAF Northolt
London, England, United Kingdom

Public forecast

Using degrees Celsius for public forecast. Weather courtesy of forecast.io.

Current aviation weather report (METAR) for RAF Northolt

Retrieved 2019/10/22 14:21 UTC (33 minutes ago):

EGWU 221421Z 26007KT 9999 FEW036 16/06 Q1022 NOSIG RMK BLU BLU

Aviation forecast (TAF) for RAF Northolt

Retrieved 2019/10/22 15:00 UTC (0 seconds ago):

TAF EGWU 221338Z 2215/2309 24008KT 9999 SCT035 BECMG 2221/2224 5000 BR PROB40 2300/2305 3000 MIFG BECMG 2305/2308 9999 NSW